Time;durP1;ratioP1;P1;durP2;ratioP2;P2;SDS_P1;SDS_P2;PMS_P1;PMS_P2;Temp;Humidity;BMP_temperature;BMP_pressure;BME280_temperature;BME280_humidity;BME280_pressure;Samples;Min_cycle;Max_cycle;Signal;HPM_P1;HPM_P2
2023/07/20 00:02:07;;;;;;;8.98;7.30;;;;;;;;;;5010928;28;20599;-71
2023/07/20 00:04:32;;;;;;;10.63;6.95;;;;;;;;;;5001327;28;20194;-71
2023/07/20 00:06:58;;;;;;;8.93;7.60;;;;;;;;;;5005724;28;20254;-72
2023/07/20 00:09:24;;;;;;;11.15;8.10;;;;;;;;;;5012077;28;20688;-71
2023/07/20 00:11:51;;;;;;;12.52;7.97;;;;;;;;;;5013409;28;20215;-71
2023/07/20 00:14:16;;;;;;;11.68;8.23;;;;;;;;;;4999480;28;20548;-70
2023/07/20 00:16:42;;;;;;;11.73;8.88;;;;;;;;;;5008650;28;20211;-72
2023/07/20 00:19:08;;;;;;;9.45;7.30;;;;;;;;;;4999138;28;20673;-71
2023/07/20 00:21:33;;;;;;;9.27;7.72;;;;;;;;;;4987005;28;20730;-71
2023/07/20 00:23:59;;;;;;;9.25;7.40;;;;;;;;;;5007383;28;20191;-72
2023/07/20 00:26:24;;;;;;;8.57;6.68;;;;;;;;;;5008119;28;20226;-73
2023/07/20 00:28:51;;;;;;;7.70;6.72;;;;;;;;;;4980913;28;20558;-72
2023/07/20 00:31:17;;;;;;;7.57;6.85;;;;;;;;;;5012006;28;20297;-72
2023/07/20 00:33:42;;;;;;;8.20;6.47;;;;;;;;;;5008207;28;20286;-72
2023/07/20 00:36:07;;;;;;;9.13;6.07;;;;;;;;;;5011966;28;20716;-72
2023/07/20 00:38:33;;;;;;;6.80;6.13;;;;;;;;;;4986126;28;20234;-73
2023/07/20 00:40:58;;;;;;;7.50;5.90;;;;;;;;;;4988405;28;20550;-72
2023/07/20 00:43:23;;;;;;;7.50;5.13;;;;;;;;;;5008417;28;20210;-72
2023/07/20 00:45:49;;;;;;;8.15;5.22;;;;;;;;;;5000898;28;20195;-73
2023/07/20 00:48:15;;;;;;;8.23;5.28;;;;;;;;;;5004322;28;20196;-73
2023/07/20 00:50:42;;;;;;;6.30;4.82;;;;;;;;;;5005632;28;20237;-73
2023/07/20 00:53:07;;;;;;;5.35;4.85;;;;;;;;;;4987911;28;20226;-73
2023/07/20 00:55:33;;;;;;;5.20;4.57;;;;;;;;;;5008448;28;20198;-73
2023/07/20 00:57:59;;;;;;;5.15;4.65;;;;;;;;;;5004469;28;20194;-73
2023/07/20 01:00:25;;;;;;;5.53;4.97;;;;;;;;;;5009296;28;20843;-73
2023/07/20 01:02:51;;;;;;;7.60;5.22;;;;;;;;;;5013056;28;20224;-73
2023/07/20 01:05:17;;;;;;;6.25;5.00;;;;;;;;;;5006219;28;20195;-73
2023/07/20 01:07:51;;;;;;;6.05;5.00;;;;;;;;;;5010808;28;20677;-73
2023/07/20 01:10:16;;;;;;;6.90;5.40;;;;;;;;;;5008403;28;20650;-72
2023/07/20 01:12:43;;;;;;;6.93;4.93;;;;;;;;;;5021936;28;20251;-72
2023/07/20 01:15:09;;;;;;;7.90;5.40;;;;;;;;;;4995923;28;20227;-72
2023/07/20 01:17:36;;;;;;;6.00;5.40;;;;;;;;;;5011266;28;20234;-71
2023/07/20 01:20:02;;;;;;;6.38;5.07;;;;;;;;;;5011287;28;20259;-71
2023/07/20 01:22:57;;;;;;;5.90;4.88;;;;;;;;;;5010568;28;20187;-71
2023/07/20 01:26:11;;;;;;;5.45;4.95;;;;;;;;;;5004566;28;20214;-71
2023/07/20 01:29:07;;;;;;;6.32;5.47;;;;;;;;;;4991456;28;20203;-71
2023/07/20 01:31:35;;;;;;;5.20;4.70;;;;;;;;;;4991950;28;20237;-71
2023/07/20 01:34:03;;;;;;;6.75;5.90;;;;;;;;;;4989627;28;20673;-71
2023/07/20 01:36:36;;;;;;;6.30;5.13;;;;;;;;;;4985498;28;20188;-71
2023/07/20 01:39:02;;;;;;;5.78;5.18;;;;;;;;;;4992939;28;20214;-71
2023/07/20 01:41:27;;;;;;;7.13;5.55;;;;;;;;;;4992073;28;20184;-70
2023/07/20 01:43:53;;;;;;;6.18;5.38;;;;;;;;;;4986582;28;20211;-71
2023/07/20 01:46:18;;;;;;;6.40;5.55;;;;;;;;;;4988864;28;20286;-70
2023/07/20 01:48:44;;;;;;;6.53;5.53;;;;;;;;;;4992022;28;20191;-70
2023/07/20 01:51:09;;;;;;;6.63;5.40;;;;;;;;;;4992885;28;20306;-70
2023/07/20 01:53:35;;;;;;;5.80;5.20;;;;;;;;;;4990402;28;20198;-71
2023/07/20 01:56:00;;;;;;;5.70;5.07;;;;;;;;;;4988741;28;20694;-70
2023/07/20 01:58:25;;;;;;;5.53;5.03;;;;;;;;;;4984381;28;20326;-68
2023/07/20 02:00:51;;;;;;;5.78;5.15;;;;;;;;;;4997615;28;20194;-69
2023/07/20 02:03:16;;;;;;;5.85;5.32;;;;;;;;;;4979582;28;20198;-69
2023/07/20 02:05:45;;;;;;;7.05;5.40;;;;;;;;;;4987072;28;20202;-69
2023/07/20 02:08:10;;;;;;;5.72;5.13;;;;;;;;;;5005002;28;20270;-69
2023/07/20 02:10:36;;;;;;;5.85;5.35;;;;;;;;;;4994798;28;20444;-68
2023/07/20 02:13:01;;;;;;;7.07;5.47;;;;;;;;;;4988186;28;20202;-69
2023/07/20 02:15:27;;;;;;;6.22;5.63;;;;;;;;;;4990624;28;20227;-69
2023/07/20 02:17:53;;;;;;;7.13;5.95;;;;;;;;;;4996631;28;20265;-70
2023/07/20 02:20:19;;;;;;;7.95;5.72;;;;;;;;;;4995303;28;20215;-70
2023/07/20 02:22:44;;;;;;;6.40;5.80;;;;;;;;;;5003152;28;20214;-70
2023/07/20 02:25:10;;;;;;;6.40;5.80;;;;;;;;;;4987516;28;20199;-70
2023/07/20 02:27:35;;;;;;;7.13;5.75;;;;;;;;;;5007998;28;20647;-70
2023/07/20 02:30:01;;;;;;;8.85;6.43;;;;;;;;;;5001983;28;20246;-70
2023/07/20 02:32:28;;;;;;;7.07;5.78;;;;;;;;;;5011589;28;20273;-70
2023/07/20 02:34:53;;;;;;;8.30;6.20;;;;;;;;;;5021635;28;20190;-70
2023/07/20 02:37:19;;;;;;;7.05;6.35;;;;;;;;;;4981392;28;20208;-70
2023/07/20 02:39:44;;;;;;;8.00;6.50;;;;;;;;;;5010343;28;20638;-70
2023/07/20 02:42:09;;;;;;;7.63;6.38;;;;;;;;;;5009845;28;20312;-69
2023/07/20 02:44:35;;;;;;;8.50;6.70;;;;;;;;;;5010582;28;20194;-70
2023/07/20 02:47:00;;;;;;;8.55;7.05;;;;;;;;;;5008556;28;20202;-70
2023/07/20 02:49:26;;;;;;;7.05;6.25;;;;;;;;;;5004662;28;20195;-70
2023/07/20 02:51:52;;;;;;;7.90;7.05;;;;;;;;;;5005313;28;20281;-70
2023/07/20 02:54:17;;;;;;;8.73;7.15;;;;;;;;;;5008359;28;20190;-69
2023/07/20 02:56:43;;;;;;;9.45;7.13;;;;;;;;;;5010105;28;20205;-70
2023/07/20 02:59:08;;;;;;;8.27;6.63;;;;;;;;;;5007479;28;20654;-70
2023/07/20 03:01:34;;;;;;;8.35;7.40;;;;;;;;;;5009183;28;20193;-69
2023/07/20 03:03:59;;;;;;;7.97;6.70;;;;;;;;;;5002914;28;20345;-69
2023/07/20 03:06:25;;;;;;;9.00;8.10;;;;;;;;;;5011912;28;20607;-69
2023/07/20 03:08:51;;;;;;;8.63;7.28;;;;;;;;;;5018903;28;20194;-69
2023/07/20 03:11:18;;;;;;;10.98;7.78;;;;;;;;;;5010067;28;20219;-69
2023/07/20 03:13:45;;;;;;;8.63;7.75;;;;;;;;;;5005291;28;20214;-68
2023/07/20 03:16:12;;;;;;;10.95;8.38;;;;;;;;;;4993755;28;20922;-69
2023/07/20 03:18:38;;;;;;;12.45;10.07;;;;;;;;;;5009487;28;20195;-69
2023/07/20 03:21:04;;;;;;;15.82;10.40;;;;;;;;;;5010031;28;20600;-69
2023/07/20 03:23:30;;;;;;;12.43;10.05;;;;;;;;;;4996019;28;23005;-68
2023/07/20 03:25:55;;;;;;;11.30;10.15;;;;;;;;;;4999302;28;20195;-68
2023/07/20 03:28:20;;;;;;;11.98;9.40;;;;;;;;;;5008909;28;20269;-68
2023/07/20 03:30:46;;;;;;;15.15;11.63;;;;;;;;;;5008821;28;20314;-69
2023/07/20 03:33:11;;;;;;;14.00;11.02;;;;;;;;;;4991796;28;20284;-69
2023/07/20 03:35:37;;;;;;;14.27;11.70;;;;;;;;;;4997813;28;20191;-69
2023/07/20 03:38:02;;;;;;;13.70;10.63;;;;;;;;;;5001062;28;20195;-68
2023/07/20 03:40:28;;;;;;;14.40;11.85;;;;;;;;;;5013061;28;20194;-69
2023/07/20 03:42:53;;;;;;;13.70;11.70;;;;;;;;;;5013093;28;20186;-70
2023/07/20 03:45:18;;;;;;;14.00;10.90;;;;;;;;;;5008549;28;20208;-71
2023/07/20 03:47:44;;;;;;;12.77;10.75;;;;;;;;;;5011873;28;20195;-70
2023/07/20 03:50:10;;;;;;;14.23;11.15;;;;;;;;;;5013423;28;20202;-70
2023/07/20 03:52:35;;;;;;;13.73;11.02;;;;;;;;;;5012183;28;20187;-70
2023/07/20 03:55:01;;;;;;;12.57;11.10;;;;;;;;;;5013242;28;20191;-70
2023/07/20 03:57:27;;;;;;;15.02;11.00;;;;;;;;;;5005686;28;20195;-70
2023/07/20 03:59:52;;;;;;;11.07;9.98;;;;;;;;;;5002303;28;20199;-70
2023/07/20 04:02:18;;;;;;;10.65;9.55;;;;;;;;;;5003548;28;20241;-69
2023/07/20 04:04:44;;;;;;;10.30;9.23;;;;;;;;;;4993186;28;20195;-69
2023/07/20 04:07:09;;;;;;;12.18;10.48;;;;;;;;;;5000487;28;20195;-69
2023/07/20 04:09:34;;;;;;;13.98;10.07;;;;;;;;;;5011109;28;20190;-69
2023/07/20 04:12:00;;;;;;;13.52;10.10;;;;;;;;;;5012891;28;20305;-69
2023/07/20 04:14:25;;;;;;;11.60;9.48;;;;;;;;;;5013312;28;20190;-69
2023/07/20 04:16:51;;;;;;;14.98;10.35;;;;;;;;;;5011065;28;20207;-69
2023/07/20 04:19:17;;;;;;;11.05;9.85;;;;;;;;;;5012984;28;20183;-70
2023/07/20 04:21:43;;;;;;;11.35;10.10;;;;;;;;;;5012548;28;20202;-69
2023/07/20 04:24:09;;;;;;;13.48;10.25;;;;;;;;;;5000567;28;20554;-69
2023/07/20 04:26:35;;;;;;;12.48;10.50;;;;;;;;;;5010397;28;20276;-68
2023/07/20 04:29:00;;;;;;;12.45;11.13;;;;;;;;;;5011182;28;20284;-68
2023/07/20 04:31:26;;;;;;;12.35;10.65;;;;;;;;;;5012170;28;20221;-69
2023/07/20 04:33:51;;;;;;;12.32;10.20;;;;;;;;;;5003490;28;20190;-69
2023/07/20 04:36:19;;;;;;;11.30;9.82;;;;;;;;;;5008167;28;20650;-69
2023/07/20 04:38:47;;;;;;;13.57;9.77;;;;;;;;;;5011068;28;20590;-69
2023/07/20 04:41:13;;;;;;;11.93;9.20;;;;;;;;;;5011161;28;20198;-68
2023/07/20 04:43:45;;;;;;;10.23;8.63;;;;;;;;;;5003306;28;20203;-69
2023/07/20 04:46:11;;;;;;;10.40;9.30;;;;;;;;;;5011384;28;20194;-69
2023/07/20 04:48:36;;;;;;;9.85;8.80;;;;;;;;;;5012316;28;20241;-69
2023/07/20 04:51:02;;;;;;;10.85;8.75;;;;;;;;;;5010319;28;20221;-69
2023/07/20 04:53:28;;;;;;;10.13;9.13;;;;;;;;;;5012240;28;20241;-69
2023/07/20 04:55:54;;;;;;;9.48;8.48;;;;;;;;;;5011362;28;20191;-69
2023/07/20 04:58:20;;;;;;;11.77;8.40;;;;;;;;;;5019450;28;20621;-69
2023/07/20 05:00:47;;;;;;;9.45;8.45;;;;;;;;;;5011512;28;20203;-69
2023/07/20 05:03:13;;;;;;;10.02;8.07;;;;;;;;;;5007975;28;20218;-69
2023/07/20 05:05:38;;;;;;;9.45;7.55;;;;;;;;;;4998959;28;20197;-69
2023/07/20 05:08:04;;;;;;;12.00;8.10;;;;;;;;;;5010312;28;20317;-69
2023/07/20 05:10:29;;;;;;;9.57;8.00;;;;;;;;;;5001482;28;20211;-69
2023/07/20 05:12:55;;;;;;;8.88;7.43;;;;;;;;;;5006524;28;20731;-69
2023/07/20 05:15:20;;;;;;;11.63;7.80;;;;;;;;;;4980532;28;20196;-69
2023/07/20 05:17:46;;;;;;;9.00;7.18;;;;;;;;;;5004175;28;20549;-68
2023/07/20 05:20:12;;;;;;;9.88;6.72;;;;;;;;;;4997503;28;20194;-68
2023/07/20 05:22:39;;;;;;;10.27;6.57;;;;;;;;;;5006203;28;20604;-68
2023/07/20 05:25:09;;;;;;;12.20;6.88;;;;;;;;;;5011802;28;20214;-68
2023/07/20 05:27:37;;;;;;;11.30;6.70;;;;;;;;;;5008879;28;20253;-68
2023/07/20 05:30:03;;;;;;;7.95;6.03;;;;;;;;;;5009360;28;20198;-68
2023/07/20 05:32:28;;;;;;;9.80;5.72;;;;;;;;;;5008616;28;20569;-68
2023/07/20 05:34:54;;;;;;;6.00;4.78;;;;;;;;;;4993916;28;20199;-68
2023/07/20 05:37:20;;;;;;;5.65;4.78;;;;;;;;;;5008033;28;20191;-67
2023/07/20 05:39:45;;;;;;;6.55;5.00;;;;;;;;;;5009246;28;20214;-68
2023/07/20 05:42:10;;;;;;;7.45;5.25;;;;;;;;;;5007899;28;20273;-67
2023/07/20 05:44:36;;;;;;;8.93;5.28;;;;;;;;;;5008369;28;20286;-69
2023/07/20 05:47:02;;;;;;;8.55;5.30;;;;;;;;;;5016908;28;20194;-69
2023/07/20 05:49:28;;;;;;;7.65;5.40;;;;;;;;;;5006800;28;20928;-69
2023/07/20 05:51:55;;;;;;;7.55;4.93;;;;;;;;;;5011157;28;20217;-69
2023/07/20 05:54:20;;;;;;;5.57;4.95;;;;;;;;;;5017161;28;20237;-69
2023/07/20 05:56:46;;;;;;;5.88;4.70;;;;;;;;;;5009536;28;20183;-69
2023/07/20 05:59:11;;;;;;;5.50;4.70;;;;;;;;;;5008339;28;20199;-69
2023/07/20 06:01:37;;;;;;;4.82;3.83;;;;;;;;;;5010148;28;20245;-69
2023/07/20 06:04:03;;;;;;;4.00;3.63;;;;;;;;;;5012636;28;20198;-68
2023/07/20 06:06:28;;;;;;;4.80;3.75;;;;;;;;;;4998666;28;20680;-69
2023/07/20 06:08:54;;;;;;;7.32;3.60;;;;;;;;;;5009890;28;20270;-69
2023/07/20 06:11:20;;;;;;;5.53;3.72;;;;;;;;;;5009516;28;20207;-68
2023/07/20 06:13:45;;;;;;;4.80;3.78;;;;;;;;;;5008838;28;20191;-68
2023/07/20 06:16:11;;;;;;;4.13;3.67;;;;;;;;;;5014043;28;20205;-69
2023/07/20 06:18:36;;;;;;;5.18;4.25;;;;;;;;;;5011053;28;20595;-68
2023/07/20 06:21:02;;;;;;;5.25;4.07;;;;;;;;;;5008794;28;20653;-70
2023/07/20 06:23:27;;;;;;;4.93;3.78;;;;;;;;;;5009625;28;20201;-69
2023/07/20 06:25:52;;;;;;;4.82;4.03;;;;;;;;;;5007782;28;20230;-69
2023/07/20 06:28:18;;;;;;;5.65;3.50;;;;;;;;;;5002704;28;20219;-69
2023/07/20 06:30:43;;;;;;;4.80;3.90;;;;;;;;;;4997263;28;20214;-69
2023/07/20 06:33:09;;;;;;;4.13;3.50;;;;;;;;;;5008337;28;20194;-69
2023/07/20 06:35:35;;;;;;;5.40;3.30;;;;;;;;;;5005706;28;20186;-69
2023/07/20 06:38:01;;;;;;;4.80;3.63;;;;;;;;;;5006383;28;20282;-69
2023/07/20 06:40:26;;;;;;;3.90;3.45;;;;;;;;;;4991227;28;20186;-69
2023/07/20 06:42:52;;;;;;;8.18;3.50;;;;;;;;;;5003086;28;20195;-68
2023/07/20 06:45:17;;;;;;;4.15;2.35;;;;;;;;;;5002564;28;20219;-68
2023/07/20 06:47:43;;;;;;;3.83;2.17;;;;;;;;;;5003460;28;20560;-68
2023/07/20 06:50:09;;;;;;;4.55;2.42;;;;;;;;;;5007747;28;20218;-69
2023/07/20 06:52:35;;;;;;;2.72;1.83;;;;;;;;;;5006318;28;20264;-69
2023/07/20 06:55:01;;;;;;;2.38;1.77;;;;;;;;;;5007705;28;20217;-69
2023/07/20 06:57:26;;;;;;;4.30;1.50;;;;;;;;;;4997606;28;20191;-69
2023/07/20 06:59:53;;;;;;;3.75;1.58;;;;;;;;;;5002790;28;20201;-69
2023/07/20 07:02:18;;;;;;;3.90;1.30;;;;;;;;;;5003578;28;20227;-71
2023/07/20 07:04:45;;;;;;;3.78;1.23;;;;;;;;;;5010927;28;20273;-69
2023/07/20 07:07:10;;;;;;;2.35;1.30;;;;;;;;;;5002520;28;20197;-69
2023/07/20 07:09:36;;;;;;;2.13;0.90;;;;;;;;;;5009503;28;20190;-68
2023/07/20 07:12:01;;;;;;;2.15;1.35;;;;;;;;;;5005804;28;20211;-69
2023/07/20 07:14:26;;;;;;;1.40;1.05;;;;;;;;;;5012840;28;20214;-69
2023/07/20 07:16:52;;;;;;;2.78;1.05;;;;;;;;;;5012729;28;20214;-69
2023/07/20 07:19:18;;;;;;;2.15;1.27;;;;;;;;;;5007752;28;20478;-69
2023/07/20 07:21:43;;;;;;;1.60;1.30;;;;;;;;;;4997783;28;20187;-69
2023/07/20 07:24:09;;;;;;;3.03;0.80;;;;;;;;;;5013176;28;20198;-69
2023/07/20 07:26:36;;;;;;;3.17;0.90;;;;;;;;;;5002649;28;20281;-69
2023/07/20 07:29:01;;;;;;;2.63;1.08;;;;;;;;;;4994635;28;20551;-69
2023/07/20 07:31:29;;;;;;;3.03;1.50;;;;;;;;;;5002371;28;20288;-69
2023/07/20 07:33:54;;;;;;;3.33;0.90;;;;;;;;;;5004006;28;20561;-69
2023/07/20 07:36:20;;;;;;;2.42;1.00;;;;;;;;;;5012287;28;20191;-70
2023/07/20 07:38:45;;;;;;;2.83;1.10;;;;;;;;;;5022374;28;20190;-70
2023/07/20 07:41:10;;;;;;;1.77;0.80;;;;;;;;;;5013299;28;20472;-70
2023/07/20 07:43:36;;;;;;;2.13;1.10;;;;;;;;;;5008807;28;20266;-70
2023/07/20 07:46:01;;;;;;;2.38;0.73;;;;;;;;;;5012480;28;20238;-70
2023/07/20 07:48:27;;;;;;;1.40;0.90;;;;;;;;;;5010338;28;20249;-70
2023/07/20 07:50:53;;;;;;;1.58;0.80;;;;;;;;;;5004921;28;20217;-70
2023/07/20 07:53:20;;;;;;;1.25;0.82;;;;;;;;;;5012298;28;20269;-70
2023/07/20 07:55:47;;;;;;;2.53;0.88;;;;;;;;;;4998434;28;20225;-70
2023/07/20 07:58:13;;;;;;;2.00;0.65;;;;;;;;;;5000770;28;20279;-70
2023/07/20 08:00:39;;;;;;;2.72;0.80;;;;;;;;;;5021839;28;20179;-70
2023/07/20 08:03:06;;;;;;;2.78;0.90;;;;;;;;;;5009339;28;20599;-70
2023/07/20 08:05:33;;;;;;;1.15;0.80;;;;;;;;;;5012801;28;20650;-70
2023/07/20 08:07:58;;;;;;;0.95;0.85;;;;;;;;;;5013150;28;20183;-70
2023/07/20 08:10:24;;;;;;;2.53;0.73;;;;;;;;;;5013957;28;20205;-70
2023/07/20 08:12:49;;;;;;;1.20;0.60;;;;;;;;;;5008337;28;20589;-70
2023/07/20 08:15:14;;;;;;;2.85;0.80;;;;;;;;;;4998825;28;20202;-70
2023/07/20 08:17:43;;;;;;;1.10;0.50;;;;;;;;;;5005657;28;20886;-70
2023/07/20 08:20:12;;;;;;;1.95;0.60;;;;;;;;;;5001093;28;20277;-70
2023/07/20 08:22:37;;;;;;;1.50;0.68;;;;;;;;;;5003419;28;20266;-70
2023/07/20 08:25:03;;;;;;;1.65;0.60;;;;;;;;;;4996410;28;20298;-70
2023/07/20 08:27:29;;;;;;;1.05;0.60;;;;;;;;;;5005872;28;20218;-70
2023/07/20 08:29:54;;;;;;;3.15;0.75;;;;;;;;;;5004442;28;20190;-70
2023/07/20 08:32:19;;;;;;;4.05;0.95;;;;;;;;;;5007317;28;20270;-70
2023/07/20 08:34:45;;;;;;;2.35;0.68;;;;;;;;;;5007280;28;20202;-70
2023/07/20 08:37:10;;;;;;;0.80;0.40;;;;;;;;;;5007634;28;20199;-70
2023/07/20 08:39:36;;;;;;;0.52;0.52;;;;;;;;;;5003914;28;20188;-70
2023/07/20 08:42:06;;;;;;;1.67;0.43;;;;;;;;;;5004333;28;20195;-70
2023/07/20 08:44:33;;;;;;;0.98;0.32;;;;;;;;;;5005416;28;20226;-70
2023/07/20 08:47:00;;;;;;;2.15;0.50;;;;;;;;;;5001177;28;20187;-70
2023/07/20 08:49:27;;;;;;;1.25;0.47;;;;;;;;;;5000821;28;20270;-70
2023/07/20 08:52:03;;;;;;;5.33;0.40;;;;;;;;;;4945288;28;10001006;-71
2023/07/20 08:54:32;;;;;;;3.25;0.93;;;;;;;;;;4996761;28;20399;-70
2023/07/20 08:57:02;;;;;;;1.42;0.32;;;;;;;;;;5002021;28;20642;-70
2023/07/20 08:59:28;;;;;;;0.40;0.40;;;;;;;;;;5000757;28;20194;-70
2023/07/20 09:01:56;;;;;;;1.27;0.50;;;;;;;;;;5002696;28;20191;-71
2023/07/20 09:04:22;;;;;;;1.00;0.57;;;;;;;;;;5000559;28;20187;-70
2023/07/20 09:06:49;;;;;;;3.42;0.60;;;;;;;;;;4998071;28;20214;-71
2023/07/20 09:09:15;;;;;;;1.52;0.40;;;;;;;;;;5007024;28;20585;-70
2023/07/20 09:11:40;;;;;;;1.42;0.50;;;;;;;;;;4986575;28;20222;-70
2023/07/20 09:14:07;;;;;;;0.50;0.47;;;;;;;;;;5006893;28;20191;-70
2023/07/20 09:16:47;;;;;;;1.00;0.50;;;;;;;;;;4984410;28;20187;-70
2023/07/20 09:19:15;;;;;;;1.05;0.63;;;;;;;;;;4999617;28;20194;-70
2023/07/20 09:21:40;;;;;;;3.13;0.88;;;;;;;;;;5002416;28;20183;-70
2023/07/20 09:24:06;;;;;;;0.52;0.52;;;;;;;;;;4988248;28;20552;-70
2023/07/20 09:26:40;;;;;;;1.75;0.75;;;;;;;;;;4994440;28;20274;-71
2023/07/20 09:29:07;;;;;;;0.80;0.55;;;;;;;;;;5001643;28;20185;-70
2023/07/20 09:31:32;;;;;;;0.82;0.40;;;;;;;;;;5001329;28;20307;-71
2023/07/20 09:33:58;;;;;;;0.85;0.30;;;;;;;;;;5009240;28;20576;-70
2023/07/20 09:36:23;;;;;;;1.90;0.47;;;;;;;;;;4999489;28;20207;-70
2023/07/20 09:38:49;;;;;;;3.22;0.60;;;;;;;;;;5002923;28;20199;-70
2023/07/20 09:41:18;;;;;;;0.98;0.50;;;;;;;;;;4975191;28;20183;-70
2023/07/20 09:43:45;;;;;;;2.38;0.63;;;;;;;;;;4982590;28;20211;-69
2023/07/20 09:46:10;;;;;;;2.83;0.75;;;;;;;;;;5004434;28;20500;-69
2023/07/20 09:48:36;;;;;;;1.98;0.52;;;;;;;;;;5007269;28;20197;-70
2023/07/20 09:51:03;;;;;;;2.50;0.63;;;;;;;;;;5001506;28;20294;-70
2023/07/20 09:53:29;;;;;;;0.98;0.60;;;;;;;;;;5012144;28;20221;-69
2023/07/20 09:55:55;;;;;;;3.10;0.50;;;;;;;;;;5008963;28;20644;-69
2023/07/20 09:58:21;;;;;;;1.23;0.40;;;;;;;;;;5005793;28;20269;-70
2023/07/20 10:00:51;;;;;;;2.58;0.40;;;;;;;;;;5005760;28;20187;-69
2023/07/20 10:03:19;;;;;;;1.02;0.50;;;;;;;;;;5003569;28;20541;-69
2023/07/20 10:05:55;;;;;;;2.55;0.63;;;;;;;;;;5000174;28;20195;-69
2023/07/20 10:08:28;;;;;;;0.77;0.52;;;;;;;;;;5008376;28;20641;-69
2023/07/20 10:10:54;;;;;;;1.20;0.50;;;;;;;;;;5006886;28;20219;-69
2023/07/20 10:13:26;;;;;;;1.65;0.35;;;;;;;;;;5004531;28;20203;-68
2023/07/20 10:16:02;;;;;;;2.15;0.50;;;;;;;;;;5007944;28;20593;-70
2023/07/20 10:18:33;;;;;;;1.13;0.60;;;;;;;;;;5004807;28;20229;-69
2023/07/20 10:21:00;;;;;;;1.67;0.47;;;;;;;;;;5003902;28;20218;-70
2023/07/20 10:23:28;;;;;;;2.58;0.40;;;;;;;;;;5011389;28;20214;-69
2023/07/20 10:25:54;;;;;;;1.00;0.40;;;;;;;;;;5020566;28;20568;-69
2023/07/20 10:28:20;;;;;;;0.80;0.57;;;;;;;;;;4986406;28;20237;-68
2023/07/20 10:30:46;;;;;;;1.75;0.40;;;;;;;;;;4989561;28;20219;-69
2023/07/20 10:33:12;;;;;;;3.40;0.50;;;;;;;;;;4979265;28;20662;-69
2023/07/20 10:35:55;;;;;;;1.92;0.70;;;;;;;;;;4984848;28;20223;-69
2023/07/20 10:38:39;;;;;;;0.68;0.50;;;;;;;;;;4988560;28;20608;-68
2023/07/20 10:41:25;;;;;;;0.80;0.50;;;;;;;;;;4978136;28;20604;-69
2023/07/20 10:43:51;;;;;;;1.27;0.57;;;;;;;;;;4991160;28;20678;-69
2023/07/20 10:46:43;;;;;;;1.33;0.50;;;;;;;;;;4976703;28;20181;-69
2023/07/20 10:49:10;;;;;;;0.98;0.43;;;;;;;;;;4984895;28;20545;-69
2023/07/20 10:51:43;;;;;;;0.65;0.52;;;;;;;;;;4978934;28;20583;-68
2023/07/20 10:54:29;;;;;;;2.60;0.50;;;;;;;;;;4986897;28;20245;-69
2023/07/20 10:57:15;;;;;;;1.35;0.70;;;;;;;;;;4982301;28;20200;-70
2023/07/20 10:59:41;;;;;;;0.70;0.40;;;;;;;;;;4982954;28;20324;-69
2023/07/20 11:02:07;;;;;;;3.22;0.60;;;;;;;;;;4979170;28;20208;-70
2023/07/20 11:04:40;;;;;;;0.65;0.47;;;;;;;;;;4989745;28;20199;-70
2023/07/20 11:07:06;;;;;;;0.47;0.30;;;;;;;;;;4986087;28;20744;-69
2023/07/20 11:09:35;;;;;;;0.57;0.50;;;;;;;;;;4987272;28;20195;-69
2023/07/20 11:12:14;;;;;;;1.75;0.60;;;;;;;;;;4987755;28;20675;-69
2023/07/20 11:14:54;;;;;;;1.55;0.80;;;;;;;;;;4989646;28;20203;-69
2023/07/20 11:17:22;;;;;;;1.60;0.50;;;;;;;;;;4980955;28;20211;-69
2023/07/20 11:19:56;;;;;;;1.67;0.52;;;;;;;;;;4990646;28;20261;-69
2023/07/20 11:22:22;;;;;;;0.70;0.40;;;;;;;;;;4981475;28;20195;-69
2023/07/20 11:24:49;;;;;;;0.50;0.50;;;;;;;;;;4985699;28;20196;-70
2023/07/20 11:27:14;;;;;;;2.13;0.57;;;;;;;;;;4957495;28;1082424;-70
2023/07/20 11:29:40;;;;;;;2.20;0.68;;;;;;;;;;5014390;28;20198;-69
2023/07/20 11:32:06;;;;;;;1.08;0.60;;;;;;;;;;5003516;28;20225;-68
2023/07/20 11:34:32;;;;;;;1.13;0.63;;;;;;;;;;5006533;28;20206;-69
2023/07/20 11:36:58;;;;;;;1.25;0.60;;;;;;;;;;5011823;28;20183;-69
2023/07/20 11:39:25;;;;;;;0.60;0.40;;;;;;;;;;5002553;28;20195;-69
2023/07/20 11:41:55;;;;;;;1.75;0.50;;;;;;;;;;5002660;28;20643;-70
2023/07/20 11:44:27;;;;;;;1.20;0.98;;;;;;;;;;5000274;28;20187;-69
2023/07/20 11:47:11;;;;;;;1.15;0.77;;;;;;;;;;5008774;28;20241;-70
2023/07/20 11:49:44;;;;;;;0.52;0.52;;;;;;;;;;5005196;28;20199;-70
2023/07/20 11:52:18;;;;;;;0.93;0.47;;;;;;;;;;5013245;28;20229;-70
2023/07/20 11:54:45;;;;;;;1.05;0.65;;;;;;;;;;5013928;28;20190;-70
2023/07/20 11:57:18;;;;;;;1.85;0.47;;;;;;;;;;5008064;28;20202;-70
2023/07/20 12:00:03;;;;;;;0.93;0.60;;;;;;;;;;5004280;28;20190;-70
2023/07/20 12:02:29;;;;;;;1.15;0.50;;;;;;;;;;5010177;28;20567;-70
2023/07/20 12:04:55;;;;;;;0.85;0.43;;;;;;;;;;4998413;28;20213;-69
2023/07/20 12:07:21;;;;;;;0.50;0.40;;;;;;;;;;5008909;28;20221;-68
2023/07/20 12:10:10;;;;;;;1.00;0.50;;;;;;;;;;4320854;28;10000619;-69
2023/07/20 12:12:43;;;;;;;1.40;0.50;;;;;;;;;;5009965;28;20226;-69
2023/07/20 12:15:29;;;;;;;0.40;0.40;;;;;;;;;;5005533;28;20198;-68
2023/07/20 12:17:57;;;;;;;1.48;0.50;;;;;;;;;;5010044;28;20265;-68
2023/07/20 12:20:36;;;;;;;1.88;0.80;;;;;;;;;;5006164;28;20206;-68
2023/07/20 12:23:05;;;;;;;1.92;0.82;;;;;;;;;;5001021;28;20206;-70
2023/07/20 12:25:36;;;;;;;1.23;0.60;;;;;;;;;;5006391;28;20202;-70
2023/07/20 12:28:04;;;;;;;2.45;0.60;;;;;;;;;;5012424;28;20686;-70
2023/07/20 12:30:29;;;;;;;0.60;0.47;;;;;;;;;;5009259;28;20903;-69
2023/07/20 12:32:55;;;;;;;1.05;0.50;;;;;;;;;;5011707;28;20273;-70
2023/07/20 12:35:20;;;;;;;0.73;0.57;;;;;;;;;;5008052;28;20643;-68
2023/07/20 12:37:49;;;;;;;3.45;0.47;;;;;;;;;;4992317;28;20253;-68
2023/07/20 12:40:14;;;;;;;2.17;0.80;;;;;;;;;;5010035;28;20801;-69
2023/07/20 12:42:40;;;;;;;1.00;0.77;;;;;;;;;;5000655;28;20187;-68
2023/07/20 12:45:06;;;;;;;1.33;0.63;;;;;;;;;;5002171;28;20306;-68
2023/07/20 12:47:31;;;;;;;0.80;0.63;;;;;;;;;;4993080;28;20185;-69
2023/07/20 12:49:56;;;;;;;2.38;0.60;;;;;;;;;;5006297;28;20849;-69
2023/07/20 12:52:22;;;;;;;1.20;0.95;;;;;;;;;;5005135;28;20222;-70
2023/07/20 12:54:47;;;;;;;2.05;0.60;;;;;;;;;;5003761;28;20326;-69
2023/07/20 12:57:13;;;;;;;0.70;0.70;;;;;;;;;;4986331;28;20552;-68
2023/07/20 12:59:38;;;;;;;0.65;0.63;;;;;;;;;;5000577;28;20242;-68
2023/07/20 13:02:03;;;;;;;0.98;0.77;;;;;;;;;;4999269;28;20187;-69
2023/07/20 13:04:30;;;;;;;2.25;0.70;;;;;;;;;;5005632;28;20639;-68
2023/07/20 13:06:55;;;;;;;2.78;0.98;;;;;;;;;;4998230;28;20207;-69
2023/07/20 13:09:21;;;;;;;0.63;0.63;;;;;;;;;;5005660;28;20696;-68
2023/07/20 13:11:46;;;;;;;3.85;0.90;;;;;;;;;;5004513;28;20221;-68
2023/07/20 13:14:11;;;;;;;2.35;0.50;;;;;;;;;;5008769;28;20187;-68
2023/07/20 13:16:37;;;;;;;1.50;0.60;;;;;;;;;;5008185;28;20238;-68
2023/07/20 13:19:02;;;;;;;0.90;0.70;;;;;;;;;;5006538;28;20189;-68
2023/07/20 13:21:28;;;;;;;2.65;0.90;;;;;;;;;;5009143;28;20599;-68
2023/07/20 13:23:53;;;;;;;1.08;0.70;;;;;;;;;;4984971;28;20205;-68
2023/07/20 13:26:19;;;;;;;0.73;0.60;;;;;;;;;;5009220;28;20662;-68
2023/07/20 13:28:44;;;;;;;2.00;0.80;;;;;;;;;;5005131;28;20194;-68
2023/07/20 13:31:10;;;;;;;1.67;0.47;;;;;;;;;;5007095;28;20300;-68
2023/07/20 13:33:36;;;;;;;1.15;0.80;;;;;;;;;;5011544;28;20265;-69
2023/07/20 13:36:01;;;;;;;1.33;0.60;;;;;;;;;;5006073;28;20710;-69
2023/07/20 13:38:27;;;;;;;1.50;0.70;;;;;;;;;;5006167;28;20204;-69
2023/07/20 13:40:52;;;;;;;0.70;0.60;;;;;;;;;;5000522;28;20258;-69
2023/07/20 13:43:18;;;;;;;1.73;0.55;;;;;;;;;;4998663;28;20195;-68
2023/07/20 13:45:43;;;;;;;3.60;0.90;;;;;;;;;;5004176;28;20478;-69
2023/07/20 13:48:08;;;;;;;0.57;0.50;;;;;;;;;;5004918;28;20195;-68
2023/07/20 13:50:34;;;;;;;3.80;0.70;;;;;;;;;;5006603;28;20237;-69
2023/07/20 13:53:02;;;;;;;0.98;0.73;;;;;;;;;;5007540;28;20229;-69
2023/07/20 13:55:28;;;;;;;0.90;0.60;;;;;;;;;;5005436;28;20198;-68
2023/07/20 13:57:53;;;;;;;1.45;0.65;;;;;;;;;;5002800;28;20206;-69
2023/07/20 14:00:18;;;;;;;1.38;0.70;;;;;;;;;;5005250;28;20198;-68
2023/07/20 14:02:44;;;;;;;1.15;0.70;;;;;;;;;;5001423;28;20230;-68
2023/07/20 14:05:10;;;;;;;1.05;0.70;;;;;;;;;;4986389;28;20183;-69
2023/07/20 14:07:35;;;;;;;0.60;0.60;;;;;;;;;;4996963;28;20508;-68
2023/07/20 14:10:01;;;;;;;1.02;0.60;;;;;;;;;;5009636;28;20199;-70
2023/07/20 14:12:26;;;;;;;1.25;0.70;;;;;;;;;;5001863;28;20245;-70
2023/07/20 14:14:54;;;;;;;0.93;0.60;;;;;;;;;;5003562;28;20651;-69
2023/07/20 14:17:19;;;;;;;3.17;0.80;;;;;;;;;;5007797;28;20224;-68
2023/07/20 14:19:45;;;;;;;2.45;0.63;;;;;;;;;;5004128;28;20749;-69
2023/07/20 14:22:10;;;;;;;1.00;0.90;;;;;;;;;;5006575;28;20198;-70
2023/07/20 14:24:35;;;;;;;1.08;0.77;;;;;;;;;;5008227;28;20653;-69
2023/07/20 14:27:01;;;;;;;1.17;0.82;;;;;;;;;;4998274;28;20257;-69
2023/07/20 14:29:26;;;;;;;1.85;0.80;;;;;;;;;;4997209;28;20201;-69
2023/07/20 14:31:52;;;;;;;1.55;0.90;;;;;;;;;;4995664;28;20215;-69
2023/07/20 14:34:18;;;;;;;1.25;0.80;;;;;;;;;;5006073;28;20217;-70
2023/07/20 14:36:44;;;;;;;1.48;0.80;;;;;;;;;;5006885;28;20353;-69
2023/07/20 14:39:09;;;;;;;1.05;0.75;;;;;;;;;;5007444;28;20202;-69
2023/07/20 14:41:35;;;;;;;1.83;1.00;;;;;;;;;;5000612;28;20768;-69